sensor_id;sensor_type;location;lat;lon;timestamp;P1;durP1;ratioP1;P2;durP2;ratioP2
3299;SDS011;1662;49.310;8.134;2023-03-24T00:00:11;6.40;;;5.80;;
3299;SDS011;1662;49.310;8.134;2023-03-24T00:02:39;8.30;;;7.50;;
3299;SDS011;1662;49.310;8.134;2023-03-24T00:05:07;6.80;;;6.27;;
3299;SDS011;1662;49.310;8.134;2023-03-24T00:07:37;6.37;;;5.87;;
3299;SDS011;1662;49.310;8.134;2023-03-24T00:10:05;5.80;;;5.13;;
3299;SDS011;1662;49.310;8.134;2023-03-24T00:12:36;4.97;;;4.70;;
3299;SDS011;1662;49.310;8.134;2023-03-24T00:15:06;5.50;;;5.10;;
3299;SDS011;1662;49.310;8.134;2023-03-24T00:17:35;7.03;;;5.50;;
3299;SDS011;1662;49.310;8.134;2023-03-24T00:20:02;4.67;;;4.40;;
3299;SDS011;1662;49.310;8.134;2023-03-24T00:22:38;4.20;;;3.90;;
3299;SDS011;1662;49.310;8.134;2023-03-24T00:25:12;4.90;;;4.50;;
3299;SDS011;1662;49.310;8.134;2023-03-24T00:27:41;4.40;;;4.10;;
3299;SDS011;1662;49.310;8.134;2023-03-24T00:30:09;4.77;;;4.10;;
3299;SDS011;1662;49.310;8.134;2023-03-24T00:32:38;4.40;;;4.10;;
3299;SDS011;1662;49.310;8.134;2023-03-24T00:35:05;4.80;;;4.50;;
3299;SDS011;1662;49.310;8.134;2023-03-24T00:37:36;5.00;;;4.60;;
3299;SDS011;1662;49.310;8.134;2023-03-24T00:40:06;5.20;;;4.70;;
3299;SDS011;1662;49.310;8.134;2023-03-24T00:42:36;4.23;;;3.83;;
3299;SDS011;1662;49.310;8.134;2023-03-24T00:45:04;4.23;;;4.00;;
3299;SDS011;1662;49.310;8.134;2023-03-24T00:47:33;4.47;;;4.17;;
3299;SDS011;1662;49.310;8.134;2023-03-24T00:50:06;3.60;;;3.40;;
3299;SDS011;1662;49.310;8.134;2023-03-24T00:52:35;3.30;;;3.10;;
3299;SDS011;1662;49.310;8.134;2023-03-24T00:55:01;4.73;;;3.70;;
3299;SDS011;1662;49.310;8.134;2023-03-24T00:57:29;3.23;;;3.00;;
3299;SDS011;1662;49.310;8.134;2023-03-24T00:59:59;4.03;;;3.73;;
3299;SDS011;1662;49.310;8.134;2023-03-24T01:02:33;3.20;;;3.00;;
3299;SDS011;1662;49.310;8.134;2023-03-24T01:04:59;3.50;;;3.30;;
3299;SDS011;1662;49.310;8.134;2023-03-24T01:07:27;3.83;;;3.63;;
3299;SDS011;1662;49.310;8.134;2023-03-24T01:09:54;3.50;;;3.30;;
3299;SDS011;1662;49.310;8.134;2023-03-24T01:12:29;3.90;;;3.60;;
3299;SDS011;1662;49.310;8.134;2023-03-24T01:15:00;4.00;;;3.80;;
3299;SDS011;1662;49.310;8.134;2023-03-24T01:17:29;3.37;;;3.27;;
3299;SDS011;1662;49.310;8.134;2023-03-24T01:19:55;5.13;;;4.57;;
3299;SDS011;1662;49.310;8.134;2023-03-24T01:22:22;4.07;;;3.87;;
3299;SDS011;1662;49.310;8.134;2023-03-24T01:24:52;4.90;;;4.20;;
3299;SDS011;1662;49.310;8.134;2023-03-24T01:27:18;4.27;;;4.00;;
3299;SDS011;1662;49.310;8.134;2023-03-24T01:29:43;5.00;;;4.50;;
3299;SDS011;1662;49.310;8.134;2023-03-24T01:32:09;5.10;;;4.80;;
3299;SDS011;1662;49.310;8.134;2023-03-24T01:34:35;5.10;;;4.80;;
3299;SDS011;1662;49.310;8.134;2023-03-24T01:37:01;5.70;;;4.80;;
3299;SDS011;1662;49.310;8.134;2023-03-24T01:39:27;4.87;;;4.30;;
3299;SDS011;1662;49.310;8.134;2023-03-24T01:41:54;4.60;;;4.27;;
3299;SDS011;1662;49.310;8.134;2023-03-24T01:44:30;5.17;;;4.77;;
3299;SDS011;1662;49.310;8.134;2023-03-24T01:47:01;5.30;;;4.80;;
3299;SDS011;1662;49.310;8.134;2023-03-24T01:49:32;4.47;;;4.20;;
3299;SDS011;1662;49.310;8.134;2023-03-24T01:52:02;4.73;;;4.10;;
3299;SDS011;1662;49.310;8.134;2023-03-24T01:59:48;4.67;;;4.27;;
3299;SDS011;1662;49.310;8.134;2023-03-24T02:02:16;4.17;;;3.97;;
3299;SDS011;1662;49.310;8.134;2023-03-24T02:04:47;3.97;;;3.77;;
3299;SDS011;1662;49.310;8.134;2023-03-24T02:10:16;6.33;;;5.73;;
3299;SDS011;1662;49.310;8.134;2023-03-24T02:12:44;5.17;;;4.77;;
3299;SDS011;1662;49.310;8.134;2023-03-24T02:15:11;6.40;;;5.80;;
3299;SDS011;1662;49.310;8.134;2023-03-24T02:34:54;5.60;;;5.10;;
3299;SDS011;1662;49.310;8.134;2023-03-24T02:48:20;4.87;;;4.10;;
3299;SDS011;1662;49.310;8.134;2023-03-24T02:50:49;4.30;;;4.00;;
3299;SDS011;1662;49.310;8.134;2023-03-24T02:53:32;4.60;;;4.30;;
3299;SDS011;1662;49.310;8.134;2023-03-24T02:56:08;4.97;;;4.63;;
3299;SDS011;1662;49.310;8.134;2023-03-24T02:58:39;4.63;;;4.33;;
3299;SDS011;1662;49.310;8.134;2023-03-24T03:01:19;4.43;;;4.13;;
3299;SDS011;1662;49.310;8.134;2023-03-24T03:03:56;4.50;;;4.10;;
3299;SDS011;1662;49.310;8.134;2023-03-24T03:06:27;4.47;;;4.17;;
3299;SDS011;1662;49.310;8.134;2023-03-24T03:08:57;4.60;;;4.30;;
3299;SDS011;1662;49.310;8.134;2023-03-24T03:11:28;4.27;;;4.00;;
3299;SDS011;1662;49.310;8.134;2023-03-24T03:14:03;4.30;;;4.00;;
3299;SDS011;1662;49.310;8.134;2023-03-24T03:16:39;4.27;;;4.07;;
3299;SDS011;1662;49.310;8.134;2023-03-24T03:19:15;4.57;;;4.27;;
3299;SDS011;1662;49.310;8.134;2023-03-24T03:21:44;4.90;;;4.50;;
3299;SDS011;1662;49.310;8.134;2023-03-24T03:24:31;4.80;;;4.50;;
3299;SDS011;1662;49.310;8.134;2023-03-24T03:27:07;4.80;;;4.50;;
3299;SDS011;1662;49.310;8.134;2023-03-24T03:29:40;6.20;;;4.73;;
3299;SDS011;1662;49.310;8.134;2023-03-24T03:32:13;5.30;;;4.90;;
3299;SDS011;1662;49.310;8.134;2023-03-24T03:34:47;4.73;;;4.33;;
3299;SDS011;1662;49.310;8.134;2023-03-24T03:37:32;9.07;;;5.53;;
3299;SDS011;1662;49.310;8.134;2023-03-24T03:40:33;5.23;;;4.83;;
3299;SDS011;1662;49.310;8.134;2023-03-24T03:43:02;5.27;;;4.87;;
3299;SDS011;1662;49.310;8.134;2023-03-24T03:45:29;5.87;;;5.37;;
3299;SDS011;1662;49.310;8.134;2023-03-24T03:47:57;6.07;;;5.57;;
3299;SDS011;1662;49.310;8.134;2023-03-24T03:50:23;6.47;;;5.97;;
3299;SDS011;1662;49.310;8.134;2023-03-24T03:52:48;7.43;;;6.83;;
3299;SDS011;1662;49.310;8.134;2023-03-24T03:55:16;6.87;;;6.23;;
3299;SDS011;1662;49.310;8.134;2023-03-24T03:57:44;6.53;;;6.00;;
3299;SDS011;1662;49.310;8.134;2023-03-24T04:00:15;7.03;;;6.53;;
3299;SDS011;1662;49.310;8.134;2023-03-24T04:16:33;8.27;;;6.50;;
3299;SDS011;1662;49.310;8.134;2023-03-24T04:24:41;7.47;;;6.73;;
3299;SDS011;1662;49.310;8.134;2023-03-24T04:33:01;5.47;;;5.07;;
3299;SDS011;1662;49.310;8.134;2023-03-24T04:35:34;5.00;;;4.70;;
3299;SDS011;1662;49.310;8.134;2023-03-24T04:38:15;4.83;;;4.53;;
3299;SDS011;1662;49.310;8.134;2023-03-24T04:40:50;5.57;;;4.40;;
3299;SDS011;1662;49.310;8.134;2023-03-24T04:43:19;4.60;;;4.27;;
3299;SDS011;1662;49.310;8.134;2023-03-24T04:45:48;4.00;;;3.80;;
3299;SDS011;1662;49.310;8.134;2023-03-24T04:48:16;3.93;;;3.63;;
3299;SDS011;1662;49.310;8.134;2023-03-24T04:50:43;4.50;;;4.10;;
3299;SDS011;1662;49.310;8.134;2023-03-24T04:53:20;4.77;;;4.47;;
3299;SDS011;1662;49.310;8.134;2023-03-24T04:58:18;3.90;;;3.70;;
3299;SDS011;1662;49.310;8.134;2023-03-24T05:00:45;3.40;;;3.20;;
3299;SDS011;1662;49.310;8.134;2023-03-24T05:03:12;2.67;;;2.57;;
3299;SDS011;1662;49.310;8.134;2023-03-24T05:05:41;2.90;;;2.70;;
3299;SDS011;1662;49.310;8.134;2023-03-24T05:08:12;4.07;;;3.70;;
3299;SDS011;1662;49.310;8.134;2023-03-24T05:10:38;3.80;;;3.50;;
3299;SDS011;1662;49.310;8.134;2023-03-24T05:13:04;3.20;;;2.90;;
3299;SDS011;1662;49.310;8.134;2023-03-24T05:15:31;3.43;;;3.27;;
3299;SDS011;1662;49.310;8.134;2023-03-24T05:17:57;3.60;;;3.40;;
3299;SDS011;1662;49.310;8.134;2023-03-24T05:20:23;4.00;;;3.70;;
3299;SDS011;1662;49.310;8.134;2023-03-24T05:22:49;3.97;;;3.67;;
3299;SDS011;1662;49.310;8.134;2023-03-24T05:25:16;3.60;;;3.40;;
3299;SDS011;1662;49.310;8.134;2023-03-24T05:27:42;3.73;;;3.43;;
3299;SDS011;1662;49.310;8.134;2023-03-24T05:30:08;4.10;;;3.80;;
3299;SDS011;1662;49.310;8.134;2023-03-24T05:32:35;4.03;;;3.83;;
3299;SDS011;1662;49.310;8.134;2023-03-24T05:35:01;3.90;;;3.60;;
3299;SDS011;1662;49.310;8.134;2023-03-24T05:37:28;4.90;;;4.60;;
3299;SDS011;1662;49.310;8.134;2023-03-24T05:39:53;3.90;;;3.70;;
3299;SDS011;1662;49.310;8.134;2023-03-24T05:42:19;5.10;;;4.60;;
3299;SDS011;1662;49.310;8.134;2023-03-24T05:44:45;5.80;;;4.53;;
3299;SDS011;1662;49.310;8.134;2023-03-24T05:47:11;5.97;;;4.27;;
3299;SDS011;1662;49.310;8.134;2023-03-24T05:49:40;3.93;;;3.73;;
3299;SDS011;1662;49.310;8.134;2023-03-24T05:52:06;3.63;;;3.50;;
3299;SDS011;1662;49.310;8.134;2023-03-24T05:54:33;4.67;;;4.37;;
3299;SDS011;1662;49.310;8.134;2023-03-24T05:56:59;4.50;;;4.30;;
3299;SDS011;1662;49.310;8.134;2023-03-24T05:59:25;4.33;;;4.13;;
3299;SDS011;1662;49.310;8.134;2023-03-24T06:01:51;5.70;;;5.20;;
3299;SDS011;1662;49.310;8.134;2023-03-24T06:04:20;4.40;;;4.13;;
3299;SDS011;1662;49.310;8.134;2023-03-24T06:06:47;7.53;;;5.10;;
3299;SDS011;1662;49.310;8.134;2023-03-24T06:09:12;4.73;;;4.40;;
3299;SDS011;1662;49.310;8.134;2023-03-24T06:11:40;4.80;;;4.40;;
3299;SDS011;1662;49.310;8.134;2023-03-24T06:14:09;5.60;;;5.10;;
3299;SDS011;1662;49.310;8.134;2023-03-24T06:16:35;5.50;;;5.10;;
3299;SDS011;1662;49.310;8.134;2023-03-24T06:19:04;5.03;;;4.73;;
3299;SDS011;1662;49.310;8.134;2023-03-24T06:21:31;5.10;;;4.70;;
3299;SDS011;1662;49.310;8.134;2023-03-24T06:23:57;5.30;;;4.90;;
3299;SDS011;1662;49.310;8.134;2023-03-24T06:26:23;4.50;;;4.20;;
3299;SDS011;1662;49.310;8.134;2023-03-24T06:28:49;5.03;;;4.63;;
3299;SDS011;1662;49.310;8.134;2023-03-24T06:31:20;4.80;;;4.50;;
3299;SDS011;1662;49.310;8.134;2023-03-24T06:33:46;4.23;;;4.03;;
3299;SDS011;1662;49.310;8.134;2023-03-24T06:36:13;4.47;;;3.80;;
3299;SDS011;1662;49.310;8.134;2023-03-24T06:38:39;5.60;;;5.00;;
3299;SDS011;1662;49.310;8.134;2023-03-24T06:41:06;5.23;;;4.83;;
3299;SDS011;1662;49.310;8.134;2023-03-24T06:43:32;4.57;;;4.27;;
3299;SDS011;1662;49.310;8.134;2023-03-24T06:45:58;6.23;;;5.00;;
3299;SDS011;1662;49.310;8.134;2023-03-24T06:48:24;5.07;;;4.67;;
3299;SDS011;1662;49.310;8.134;2023-03-24T06:50:51;5.40;;;5.00;;
3299;SDS011;1662;49.310;8.134;2023-03-24T06:53:20;5.27;;;4.90;;
3299;SDS011;1662;49.310;8.134;2023-03-24T06:55:49;5.60;;;4.57;;
3299;SDS011;1662;49.310;8.134;2023-03-24T06:58:15;4.70;;;4.40;;
3299;SDS011;1662;49.310;8.134;2023-03-24T07:00:43;5.17;;;4.77;;
3299;SDS011;1662;49.310;8.134;2023-03-24T07:03:10;4.23;;;3.93;;
3299;SDS011;1662;49.310;8.134;2023-03-24T07:05:41;9.03;;;4.00;;
3299;SDS011;1662;49.310;8.134;2023-03-24T07:08:08;4.40;;;4.00;;
3299;SDS011;1662;49.310;8.134;2023-03-24T07:10:36;4.20;;;3.90;;
3299;SDS011;1662;49.310;8.134;2023-03-24T07:13:03;3.97;;;3.77;;
3299;SDS011;1662;49.310;8.134;2023-03-24T07:15:29;3.47;;;3.37;;
3299;SDS011;1662;49.310;8.134;2023-03-24T07:17:55;4.10;;;3.90;;
3299;SDS011;1662;49.310;8.134;2023-03-24T07:20:21;4.60;;;3.80;;
3299;SDS011;1662;49.310;8.134;2023-03-24T07:22:47;3.60;;;3.40;;
3299;SDS011;1662;49.310;8.134;2023-03-24T07:25:12;4.63;;;4.33;;
3299;SDS011;1662;49.310;8.134;2023-03-24T07:27:38;3.87;;;3.67;;
3299;SDS011;1662;49.310;8.134;2023-03-24T07:30:05;3.90;;;3.70;;
3299;SDS011;1662;49.310;8.134;2023-03-24T07:32:33;4.53;;;4.33;;
3299;SDS011;1662;49.310;8.134;2023-03-24T07:34:59;3.47;;;3.30;;
3299;SDS011;1662;49.310;8.134;2023-03-24T07:37:26;3.53;;;3.33;;
3299;SDS011;1662;49.310;8.134;2023-03-24T07:39:52;3.77;;;3.57;;
3299;SDS011;1662;49.310;8.134;2023-03-24T07:42:18;3.93;;;3.57;;
3299;SDS011;1662;49.310;8.134;2023-03-24T07:44:46;3.87;;;3.60;;
3299;SDS011;1662;49.310;8.134;2023-03-24T07:47:11;3.73;;;3.53;;
3299;SDS011;1662;49.310;8.134;2023-03-24T07:49:37;3.47;;;3.13;;
3299;SDS011;1662;49.310;8.134;2023-03-24T07:52:03;3.50;;;3.20;;
3299;SDS011;1662;49.310;8.134;2023-03-24T07:54:31;3.50;;;3.30;;
3299;SDS011;1662;49.310;8.134;2023-03-24T07:56:58;3.23;;;3.03;;
3299;SDS011;1662;49.310;8.134;2023-03-24T07:59:24;2.97;;;2.87;;
3299;SDS011;1662;49.310;8.134;2023-03-24T08:01:52;3.17;;;2.97;;
3299;SDS011;1662;49.310;8.134;2023-03-24T08:04:20;3.70;;;3.43;;
3299;SDS011;1662;49.310;8.134;2023-03-24T08:06:46;3.07;;;2.97;;
3299;SDS011;1662;49.310;8.134;2023-03-24T08:09:12;4.30;;;3.20;;
3299;SDS011;1662;49.310;8.134;2023-03-24T08:11:38;3.00;;;2.90;;
3299;SDS011;1662;49.310;8.134;2023-03-24T08:14:04;3.67;;;3.37;;
3299;SDS011;1662;49.310;8.134;2023-03-24T08:16:30;3.33;;;3.23;;
3299;SDS011;1662;49.310;8.134;2023-03-24T08:18:55;3.30;;;2.93;;
3299;SDS011;1662;49.310;8.134;2023-03-24T08:21:22;3.03;;;2.90;;
3299;SDS011;1662;49.310;8.134;2023-03-24T08:23:49;3.40;;;3.20;;
3299;SDS011;1662;49.310;8.134;2023-03-24T08:26:17;2.97;;;2.77;;
3299;SDS011;1662;49.310;8.134;2023-03-24T08:28:43;3.27;;;3.17;;
3299;SDS011;1662;49.310;8.134;2023-03-24T08:31:09;2.87;;;2.77;;
3299;SDS011;1662;49.310;8.134;2023-03-24T08:33:35;2.87;;;2.70;;
3299;SDS011;1662;49.310;8.134;2023-03-24T08:36:01;3.33;;;3.03;;
3299;SDS011;1662;49.310;8.134;2023-03-24T08:38:27;2.80;;;2.70;;
3299;SDS011;1662;49.310;8.134;2023-03-24T08:40:57;3.00;;;2.90;;
3299;SDS011;1662;49.310;8.134;2023-03-24T08:43:26;2.63;;;2.47;;
3299;SDS011;1662;49.310;8.134;2023-03-24T08:45:53;2.77;;;2.60;;
3299;SDS011;1662;49.310;8.134;2023-03-24T08:48:25;2.93;;;2.73;;
3299;SDS011;1662;49.310;8.134;2023-03-24T08:50:52;3.20;;;3.10;;
3299;SDS011;1662;49.310;8.134;2023-03-24T08:53:21;2.80;;;2.70;;
3299;SDS011;1662;49.310;8.134;2023-03-24T08:55:47;2.77;;;2.57;;
3299;SDS011;1662;49.310;8.134;2023-03-24T08:58:16;2.83;;;2.60;;
3299;SDS011;1662;49.310;8.134;2023-03-24T09:00:47;2.30;;;2.20;;
3299;SDS011;1662;49.310;8.134;2023-03-24T09:03:14;2.57;;;2.47;;
3299;SDS011;1662;49.310;8.134;2023-03-24T09:05:42;3.80;;;2.20;;
3299;SDS011;1662;49.310;8.134;2023-03-24T09:08:09;2.93;;;2.73;;
3299;SDS011;1662;49.310;8.134;2023-03-24T09:10:38;2.33;;;2.23;;
3299;SDS011;1662;49.310;8.134;2023-03-24T09:13:04;2.20;;;2.10;;
3299;SDS011;1662;49.310;8.134;2023-03-24T09:15:31;2.50;;;2.30;;
3299;SDS011;1662;49.310;8.134;2023-03-24T09:17:57;4.50;;;2.13;;
3299;SDS011;1662;49.310;8.134;2023-03-24T09:20:23;2.63;;;2.50;;
3299;SDS011;1662;49.310;8.134;2023-03-24T09:22:51;2.73;;;2.53;;
3299;SDS011;1662;49.310;8.134;2023-03-24T09:25:17;2.17;;;2.07;;
3299;SDS011;1662;49.310;8.134;2023-03-24T09:27:44;2.10;;;1.90;;
3299;SDS011;1662;49.310;8.134;2023-03-24T09:30:11;2.60;;;2.50;;
3299;SDS011;1662;49.310;8.134;2023-03-24T09:32:39;2.30;;;2.20;;
3299;SDS011;1662;49.310;8.134;2023-03-24T09:35:05;2.40;;;2.30;;
3299;SDS011;1662;49.310;8.134;2023-03-24T09:37:32;2.33;;;2.23;;
3299;SDS011;1662;49.310;8.134;2023-03-24T09:39:58;2.23;;;2.03;;
3299;SDS011;1662;49.310;8.134;2023-03-24T09:42:25;2.17;;;2.07;;
3299;SDS011;1662;49.310;8.134;2023-03-24T09:44:57;2.00;;;2.00;;
3299;SDS011;1662;49.310;8.134;2023-03-24T09:52:58;1.70;;;1.60;;
3299;SDS011;1662;49.310;8.134;2023-03-24T09:55:30;1.73;;;1.73;;
3299;SDS011;1662;49.310;8.134;2023-03-24T09:58:02;2.00;;;1.90;;
3299;SDS011;1662;49.310;8.134;2023-03-24T10:00:32;2.67;;;2.57;;
3299;SDS011;1662;49.310;8.134;2023-03-24T10:03:09;1.97;;;1.87;;
3299;SDS011;1662;49.310;8.134;2023-03-24T10:05:53;2.50;;;2.37;;
3299;SDS011;1662;49.310;8.134;2023-03-24T10:08:30;2.50;;;2.40;;
3299;SDS011;1662;49.310;8.134;2023-03-24T10:13:50;2.27;;;2.17;;
3299;SDS011;1662;49.310;8.134;2023-03-24T10:16:31;2.20;;;2.00;;
3299;SDS011;1662;49.310;8.134;2023-03-24T10:21:33;2.10;;;2.00;;
3299;SDS011;1662;49.310;8.134;2023-03-24T10:24:09;2.63;;;2.53;;
3299;SDS011;1662;49.310;8.134;2023-03-24T10:29:43;2.77;;;2.60;;
3299;SDS011;1662;49.310;8.134;2023-03-24T10:32:14;2.03;;;1.93;;
3299;SDS011;1662;49.310;8.134;2023-03-24T10:34:47;2.50;;;2.40;;
3299;SDS011;1662;49.310;8.134;2023-03-24T10:37:17;2.50;;;2.40;;
3299;SDS011;1662;49.310;8.134;2023-03-24T10:39:44;2.40;;;2.27;;
3299;SDS011;1662;49.310;8.134;2023-03-24T10:42:14;2.10;;;2.00;;
3299;SDS011;1662;49.310;8.134;2023-03-24T10:44:44;3.27;;;2.50;;
3299;SDS011;1662;49.310;8.134;2023-03-24T10:47:12;2.33;;;2.10;;
3299;SDS011;1662;49.310;8.134;2023-03-24T10:49:51;2.00;;;1.90;;
3299;SDS011;1662;49.310;8.134;2023-03-24T10:52:34;2.00;;;1.90;;
3299;SDS011;1662;49.310;8.134;2023-03-24T10:55:06;1.50;;;1.50;;
3299;SDS011;1662;49.310;8.134;2023-03-24T10:57:39;1.33;;;1.33;;
3299;SDS011;1662;49.310;8.134;2023-03-24T11:00:08;1.23;;;1.23;;
3299;SDS011;1662;49.310;8.134;2023-03-24T11:03:00;1.13;;;1.13;;
3299;SDS011;1662;49.310;8.134;2023-03-24T11:05:36;1.20;;;1.20;;
3299;SDS011;1662;49.310;8.134;2023-03-24T11:08:11;1.17;;;1.07;;
3299;SDS011;1662;49.310;8.134;2023-03-24T11:10:41;1.37;;;1.37;;
3299;SDS011;1662;49.310;8.134;2023-03-24T11:13:17;2.30;;;1.50;;
3299;SDS011;1662;49.310;8.134;2023-03-24T11:18:40;1.20;;;1.00;;
3299;SDS011;1662;49.310;8.134;2023-03-24T11:21:22;1.20;;;1.20;;
3299;SDS011;1662;49.310;8.134;2023-03-24T11:23:48;1.10;;;1.10;;
3299;SDS011;1662;49.310;8.134;2023-03-24T11:26:30;1.30;;;1.30;;
3299;SDS011;1662;49.310;8.134;2023-03-24T11:29:20;1.20;;;1.20;;
3299;SDS011;1662;49.310;8.134;2023-03-24T11:31:53;2.00;;;1.47;;
3299;SDS011;1662;49.310;8.134;2023-03-24T11:34:23;1.10;;;1.10;;
3299;SDS011;1662;49.310;8.134;2023-03-24T11:36:58;1.47;;;1.37;;
3299;SDS011;1662;49.310;8.134;2023-03-24T11:39:25;1.73;;;1.63;;
3299;SDS011;1662;49.310;8.134;2023-03-24T11:42:01;1.83;;;1.20;;
3299;SDS011;1662;49.310;8.134;2023-03-24T11:47:03;2.93;;;2.07;;
3299;SDS011;1662;49.310;8.134;2023-03-24T11:52:39;2.13;;;1.60;;
3299;SDS011;1662;49.310;8.134;2023-03-24T11:55:43;1.70;;;1.60;;
3299;SDS011;1662;49.310;8.134;2023-03-24T12:01:04;2.93;;;1.70;;
3299;SDS011;1662;49.310;8.134;2023-03-24T12:03:54;3.90;;;1.90;;
3299;SDS011;1662;49.310;8.134;2023-03-24T12:25:25;3.77;;;1.70;;
3299;SDS011;1662;49.310;8.134;2023-03-24T12:39:10;2.20;;;1.50;;
3299;SDS011;1662;49.310;8.134;2023-03-24T12:41:53;1.70;;;1.60;;
3299;SDS011;1662;49.310;8.134;2023-03-24T12:56:03;2.43;;;2.20;;
3299;SDS011;1662;49.310;8.134;2023-03-24T12:58:48;1.93;;;1.83;;
3299;SDS011;1662;49.310;8.134;2023-03-24T13:04:03;2.60;;;2.00;;
3299;SDS011;1662;49.310;8.134;2023-03-24T13:06:49;3.70;;;2.10;;
3299;SDS011;1662;49.310;8.134;2023-03-24T13:09:36;2.03;;;1.93;;
3299;SDS011;1662;49.310;8.134;2023-03-24T13:20:02;3.33;;;2.20;;
3299;SDS011;1662;49.310;8.134;2023-03-24T13:22:32;3.10;;;2.10;;
3299;SDS011;1662;49.310;8.134;2023-03-24T13:25:00;3.40;;;2.20;;
3299;SDS011;1662;49.310;8.134;2023-03-24T13:27:27;2.17;;;1.97;;
3299;SDS011;1662;49.310;8.134;2023-03-24T13:30:12;2.13;;;1.93;;
3299;SDS011;1662;49.310;8.134;2023-03-24T13:32:52;2.40;;;2.20;;
3299;SDS011;1662;49.310;8.134;2023-03-24T13:41:24;2.20;;;1.97;;
3299;SDS011;1662;49.310;8.134;2023-03-24T13:44:37;2.67;;;2.43;;
3299;SDS011;1662;49.310;8.134;2023-03-24T13:46:43;4.73;;;2.70;;
3299;SDS011;1662;49.310;8.134;2023-03-24T13:49:32;2.80;;;2.47;;
3299;SDS011;1662;49.310;8.134;2023-03-24T13:52:01;2.63;;;2.50;;
3299;SDS011;1662;49.310;8.134;2023-03-24T13:54:30;3.50;;;2.67;;
3299;SDS011;1662;49.310;8.134;2023-03-24T13:57:02;2.40;;;2.30;;
3299;SDS011;1662;49.310;8.134;2023-03-24T14:13:20;3.70;;;3.50;;
3299;SDS011;1662;49.310;8.134;2023-03-24T14:15:32;3.60;;;3.27;;
3299;SDS011;1662;49.310;8.134;2023-03-24T14:20:41;4.20;;;3.50;;
3299;SDS011;1662;49.310;8.134;2023-03-24T14:26:05;3.93;;;3.63;;
3299;SDS011;1662;49.310;8.134;2023-03-24T14:28:36;5.20;;;4.00;;
3299;SDS011;1662;49.310;8.134;2023-03-24T14:31:17;5.00;;;4.10;;
3299;SDS011;1662;49.310;8.134;2023-03-24T14:36:56;4.37;;;4.03;;
3299;SDS011;1662;49.310;8.134;2023-03-24T14:39:35;4.10;;;3.90;;
3299;SDS011;1662;49.310;8.134;2023-03-24T14:44:51;5.50;;;5.00;;
3299;SDS011;1662;49.310;8.134;2023-03-24T14:47:29;5.47;;;5.17;;
3299;SDS011;1662;49.310;8.134;2023-03-24T14:50:00;5.10;;;4.90;;
3299;SDS011;1662;49.310;8.134;2023-03-24T14:52:39;4.93;;;4.70;;
3299;SDS011;1662;49.310;8.134;2023-03-24T14:55:13;5.03;;;4.63;;
3299;SDS011;1662;49.310;8.134;2023-03-24T14:58:10;4.57;;;4.40;;
3299;SDS011;1662;49.310;8.134;2023-03-24T15:00:53;4.80;;;4.50;;
3299;SDS011;1662;49.310;8.134;2023-03-24T15:03:29;4.97;;;4.70;;
3299;SDS011;1662;49.310;8.134;2023-03-24T15:06:15;5.00;;;4.70;;
3299;SDS011;1662;49.310;8.134;2023-03-24T15:08:47;5.30;;;5.20;;
3299;SDS011;1662;49.310;8.134;2023-03-24T15:11:16;5.67;;;5.37;;
3299;SDS011;1662;49.310;8.134;2023-03-24T15:13:49;6.00;;;5.50;;
3299;SDS011;1662;49.310;8.134;2023-03-24T15:19:05;5.90;;;5.60;;
3299;SDS011;1662;49.310;8.134;2023-03-24T15:21:37;5.40;;;5.10;;
3299;SDS011;1662;49.310;8.134;2023-03-24T15:26:46;6.20;;;5.70;;
3299;SDS011;1662;49.310;8.134;2023-03-24T15:29:30;24.17;;;8.23;;
3299;SDS011;1662;49.310;8.134;2023-03-24T15:32:04;5.80;;;5.60;;
3299;SDS011;1662;49.310;8.134;2023-03-24T15:36:59;6.40;;;6.00;;
3299;SDS011;1662;49.310;8.134;2023-03-24T15:39:33;6.53;;;6.00;;
3299;SDS011;1662;49.310;8.134;2023-03-24T15:42:06;5.77;;;5.47;;
3299;SDS011;1662;49.310;8.134;2023-03-24T15:44:44;13.90;;;6.37;;
3299;SDS011;1662;49.310;8.134;2023-03-24T15:47:20;6.23;;;5.83;;
3299;SDS011;1662;49.310;8.134;2023-03-24T15:49:54;7.10;;;6.43;;
3299;SDS011;1662;49.310;8.134;2023-03-24T15:52:36;6.67;;;6.27;;
3299;SDS011;1662;49.310;8.134;2023-03-24T15:55:37;7.13;;;6.63;;
3299;SDS011;1662;49.310;8.134;2023-03-24T15:58:24;6.40;;;6.00;;
3299;SDS011;1662;49.310;8.134;2023-03-24T16:00:56;31.20;;;10.77;;
3299;SDS011;1662;49.310;8.134;2023-03-24T16:03:26;25.57;;;10.00;;
3299;SDS011;1662;49.310;8.134;2023-03-24T16:06:28;8.17;;;7.23;;
3299;SDS011;1662;49.310;8.134;2023-03-24T16:09:14;6.93;;;6.43;;
3299;SDS011;1662;49.310;8.134;2023-03-24T16:11:53;7.03;;;6.43;;
3299;SDS011;1662;49.310;8.134;2023-03-24T16:17:10;7.53;;;6.77;;
3299;SDS011;1662;49.310;8.134;2023-03-24T16:19:37;6.77;;;6.47;;
3299;SDS011;1662;49.310;8.134;2023-03-24T16:22:11;6.20;;;6.00;;
3299;SDS011;1662;49.310;8.134;2023-03-24T16:24:52;8.13;;;7.50;;
3299;SDS011;1662;49.310;8.134;2023-03-24T16:27:38;6.37;;;5.90;;
3299;SDS011;1662;49.310;8.134;2023-03-24T16:31:05;60.13;;;13.00;;
3299;SDS011;1662;49.310;8.134;2023-03-24T16:33:45;9.23;;;6.00;;
3299;SDS011;1662;49.310;8.134;2023-03-24T16:36:20;7.97;;;7.20;;
3299;SDS011;1662;49.310;8.134;2023-03-24T16:38:54;6.77;;;6.17;;
3299;SDS011;1662;49.310;8.134;2023-03-24T16:41:27;5.73;;;5.40;;
3299;SDS011;1662;49.310;8.134;2023-03-24T16:44:01;5.90;;;5.60;;
3299;SDS011;1662;49.310;8.134;2023-03-24T16:46:52;6.23;;;6.00;;
3299;SDS011;1662;49.310;8.134;2023-03-24T16:49:27;32.50;;;12.30;;
3299;SDS011;1662;49.310;8.134;2023-03-24T16:51:59;8.73;;;6.23;;
3299;SDS011;1662;49.310;8.134;2023-03-24T16:57:21;7.23;;;6.77;;
3299;SDS011;1662;49.310;8.134;2023-03-24T16:59:56;6.00;;;5.60;;
3299;SDS011;1662;49.310;8.134;2023-03-24T17:02:40;5.57;;;5.27;;
3299;SDS011;1662;49.310;8.134;2023-03-24T17:05:19;5.67;;;5.27;;
3299;SDS011;1662;49.310;8.134;2023-03-24T17:07:52;6.13;;;5.57;;
3299;SDS011;1662;49.310;8.134;2023-03-24T17:10:48;5.90;;;5.50;;
3299;SDS011;1662;49.310;8.134;2023-03-24T17:13:20;9.03;;;5.17;;
3299;SDS011;1662;49.310;8.134;2023-03-24T17:15:53;12.80;;;6.00;;
3299;SDS011;1662;49.310;8.134;2023-03-24T17:19:18;5.93;;;5.63;;
3299;SDS011;1662;49.310;8.134;2023-03-24T17:25:44;5.73;;;5.40;;
3299;SDS011;1662;49.310;8.134;2023-03-24T17:38:16;5.57;;;5.17;;
3299;SDS011;1662;49.310;8.134;2023-03-24T17:40:59;19.23;;;6.80;;
3299;SDS011;1662;49.310;8.134;2023-03-24T17:47:24;21.77;;;6.87;;
3299;SDS011;1662;49.310;8.134;2023-03-24T17:57:30;6.03;;;5.63;;
3299;SDS011;1662;49.310;8.134;2023-03-24T18:03:34;7.30;;;5.73;;
3299;SDS011;1662;49.310;8.134;2023-03-24T18:06:26;29.10;;;9.80;;
3299;SDS011;1662;49.310;8.134;2023-03-24T18:09:50;6.73;;;6.13;;
3299;SDS011;1662;49.310;8.134;2023-03-24T18:19:47;19.17;;;8.60;;
3299;SDS011;1662;49.310;8.134;2023-03-24T18:29:50;4.90;;;4.60;;
3299;SDS011;1662;49.310;8.134;2023-03-24T18:36:45;5.83;;;4.93;;
3299;SDS011;1662;49.310;8.134;2023-03-24T18:50:17;9.27;;;5.83;;
3299;SDS011;1662;49.310;8.134;2023-03-24T19:00:21;13.47;;;6.37;;
3299;SDS011;1662;49.310;8.134;2023-03-24T19:10:44;5.87;;;5.17;;
3299;SDS011;1662;49.310;8.134;2023-03-24T19:13:11;4.77;;;4.20;;
3299;SDS011;1662;49.310;8.134;2023-03-24T19:19:01;5.70;;;5.20;;
3299;SDS011;1662;49.310;8.134;2023-03-24T19:22:24;6.10;;;5.50;;
3299;SDS011;1662;49.310;8.134;2023-03-24T19:31:24;10.47;;;6.17;;
3299;SDS011;1662;49.310;8.134;2023-03-24T19:34:10;6.70;;;5.43;;
3299;SDS011;1662;49.310;8.134;2023-03-24T19:37:16;8.37;;;5.20;;
3299;SDS011;1662;49.310;8.134;2023-03-24T19:39:57;7.73;;;3.67;;
3299;SDS011;1662;49.310;8.134;2023-03-24T19:42:51;6.40;;;4.60;;
3299;SDS011;1662;49.310;8.134;2023-03-24T19:45:48;5.40;;;4.40;;
3299;SDS011;1662;49.310;8.134;2023-03-24T19:51:42;5.33;;;3.00;;
3299;SDS011;1662;49.310;8.134;2023-03-24T19:55:09;2.10;;;2.00;;
3299;SDS011;1662;49.310;8.134;2023-03-24T19:57:36;8.33;;;2.50;;
3299;SDS011;1662;49.310;8.134;2023-03-24T20:00:28;2.33;;;2.13;;
3299;SDS011;1662;49.310;8.134;2023-03-24T20:07:15;8.27;;;2.50;;
3299;SDS011;1662;49.310;8.134;2023-03-24T20:10:57;3.60;;;2.30;;
3299;SDS011;1662;49.310;8.134;2023-03-24T20:21:07;2.80;;;2.20;;
3299;SDS011;1662;49.310;8.134;2023-03-24T20:24:24;2.17;;;1.97;;
3299;SDS011;1662;49.310;8.134;2023-03-24T20:31:00;4.50;;;2.30;;
3299;SDS011;1662;49.310;8.134;2023-03-24T20:37:46;2.77;;;2.50;;
3299;SDS011;1662;49.310;8.134;2023-03-24T20:43:48;3.53;;;2.17;;
3299;SDS011;1662;49.310;8.134;2023-03-24T20:46:58;2.17;;;2.07;;